createdAt,value
2023-04-16T00:01:01.161Z,0.63
2023-04-16T00:03:28.231Z,0.60
2023-04-16T00:05:56.531Z,0.60
2023-04-16T00:08:26.205Z,0.60
2023-04-16T00:10:55.791Z,0.50
2023-04-16T00:13:22.739Z,0.63
2023-04-16T00:15:49.369Z,0.60
2023-04-16T00:18:15.925Z,0.50
2023-04-16T00:20:42.525Z,0.70
2023-04-16T00:23:09.119Z,0.70
2023-04-16T00:25:35.900Z,0.85
2023-04-16T00:28:02.866Z,0.80
2023-04-16T00:30:29.645Z,0.70
2023-04-16T00:32:56.237Z,0.63
2023-04-16T00:35:22.866Z,0.80
2023-04-16T00:37:49.447Z,0.70
2023-04-16T00:40:16.209Z,0.73
2023-04-16T00:42:42.698Z,0.50
2023-04-16T00:45:10.266Z,0.60
2023-04-16T00:47:36.909Z,0.63
2023-04-16T00:50:04.578Z,0.68
2023-04-16T00:52:33.149Z,0.90
2023-04-16T00:54:59.904Z,0.68
2023-04-16T00:57:27.055Z,0.70
2023-04-16T00:59:54.503Z,0.82
2023-04-16T01:02:21.228Z,0.70
2023-04-16T01:04:47.955Z,0.80
2023-04-16T01:07:14.442Z,0.60
2023-04-16T01:09:41.008Z,0.80
2023-04-16T01:12:07.818Z,0.80
2023-04-16T01:14:36.404Z,0.80
2023-04-16T01:17:03.838Z,0.80
2023-04-16T01:19:36.367Z,0.50
2023-04-16T01:22:03.927Z,0.63
2023-04-16T01:24:31.471Z,0.73
2023-04-16T01:26:59.495Z,0.63
2023-04-16T01:29:26.889Z,0.80
2023-04-16T01:31:54.417Z,0.63
2023-04-16T01:34:21.009Z,0.63
2023-04-16T01:36:47.461Z,0.63
2023-04-16T01:39:16.326Z,0.50
2023-04-16T01:41:43.732Z,0.90
2023-04-16T01:44:10.459Z,0.80
2023-04-16T01:46:38.188Z,0.60
2023-04-16T01:49:05.928Z,0.60
2023-04-16T01:51:32.701Z,0.70
2023-04-16T01:53:59.444Z,0.68
2023-04-16T01:56:26.419Z,0.88
2023-04-16T01:58:53.411Z,0.85
2023-04-16T02:01:20.305Z,0.90
2023-04-16T02:03:47.631Z,0.85
2023-04-16T02:06:14.950Z,0.80
2023-04-16T02:08:41.807Z,0.93
2023-04-16T02:11:08.349Z,0.50
2023-04-16T02:13:35.012Z,0.75
2023-04-16T02:16:02.498Z,1.00
2023-04-16T02:18:29.137Z,0.80
2023-04-16T02:20:58.658Z,0.50
2023-04-16T02:23:25.384Z,0.68
2023-04-16T02:25:51.843Z,0.80
2023-04-16T02:28:18.373Z,0.70
2023-04-16T02:30:44.908Z,0.90
2023-04-16T02:33:13.085Z,0.63
2023-04-16T02:35:40.076Z,0.50
2023-04-16T02:38:07.449Z,0.50
2023-04-16T02:40:34.267Z,0.85
2023-04-16T02:43:00.950Z,0.80
2023-04-16T02:45:28.054Z,0.77
2023-04-16T02:47:54.569Z,0.52
2023-04-16T02:50:21.140Z,0.60
2023-04-16T02:52:47.853Z,0.77
2023-04-16T02:55:14.421Z,0.70
2023-04-16T02:57:42.375Z,0.75
2023-04-16T03:00:09.882Z,0.80
2023-04-16T03:02:36.797Z,0.80
2023-04-16T03:05:03.897Z,0.55
2023-04-16T03:07:30.469Z,0.80
2023-04-16T03:09:58.122Z,0.85
2023-04-16T03:12:24.705Z,0.88
2023-04-16T03:14:52.678Z,0.80
2023-04-16T03:17:19.350Z,0.70
2023-04-16T03:19:46.118Z,0.70
2023-04-16T03:22:12.748Z,0.52
2023-04-16T03:24:39.187Z,0.75
2023-04-16T03:27:05.738Z,0.80
2023-04-16T03:29:32.221Z,0.50
2023-04-16T03:31:58.757Z,0.70
2023-04-16T03:34:25.426Z,0.80
2023-04-16T03:36:51.973Z,1.08
2023-04-16T03:39:18.448Z,0.50
2023-04-16T03:41:44.919Z,1.00
2023-04-16T03:44:11.384Z,0.70
2023-04-16T03:46:38.000Z,0.90
2023-04-16T03:49:04.697Z,0.90
2023-04-16T03:51:31.291Z,0.80
2023-04-16T03:53:57.745Z,1.05
2023-04-16T03:56:24.334Z,0.80
2023-04-16T03:58:51.054Z,0.80
2023-04-16T04:01:17.586Z,0.65
2023-04-16T04:03:44.403Z,1.00
2023-04-16T04:06:11.099Z,0.80
2023-04-16T04:08:37.626Z,0.80
2023-04-16T04:11:04.208Z,1.10
2023-04-16T04:13:30.704Z,0.80
2023-04-16T04:15:57.227Z,1.05
2023-04-16T04:18:23.798Z,1.23
2023-04-16T04:20:50.335Z,1.08
2023-04-16T04:23:16.850Z,1.00
2023-04-16T04:25:44.085Z,0.98
2023-04-16T04:28:10.647Z,0.90
2023-04-16T04:30:37.151Z,0.80
2023-04-16T04:33:04.011Z,0.95
2023-04-16T04:35:30.784Z,0.82
2023-04-16T04:37:57.247Z,0.90
2023-04-16T04:40:23.960Z,0.80
2023-04-16T04:42:50.448Z,0.77
2023-04-16T04:45:17.149Z,0.90
2023-04-16T04:47:43.677Z,0.65
2023-04-16T04:50:10.796Z,1.10
2023-04-16T04:52:37.284Z,0.85
2023-04-16T04:55:03.935Z,0.85
2023-04-16T04:57:30.426Z,0.80
2023-04-16T04:59:56.898Z,0.90
2023-04-16T05:02:23.485Z,0.93
2023-04-16T05:04:50.191Z,0.93
2023-04-16T05:07:16.931Z,0.80
2023-04-16T05:09:43.434Z,1.20
2023-04-16T05:12:10.001Z,0.80
2023-04-16T05:14:36.519Z,0.90
2023-04-16T05:17:03.129Z,0.93
2023-04-16T05:19:29.838Z,1.00
2023-04-16T05:21:56.398Z,0.98
2023-04-16T05:24:23.278Z,0.80
2023-04-16T05:26:49.845Z,0.70
2023-04-16T05:29:16.327Z,0.80
2023-04-16T05:31:42.889Z,1.02
2023-04-16T05:34:09.412Z,0.80
2023-04-16T05:36:35.941Z,1.30
2023-04-16T05:39:02.477Z,0.90
2023-04-16T05:41:29.363Z,0.80
2023-04-16T05:43:56.315Z,0.73
2023-04-16T05:46:22.850Z,0.93
2023-04-16T05:48:49.402Z,0.95
2023-04-16T05:51:15.975Z,0.80
2023-04-16T05:53:42.789Z,0.82
2023-04-16T05:56:09.578Z,1.02
2023-04-16T05:58:36.122Z,0.68
2023-04-16T06:01:03.428Z,0.95
2023-04-16T06:03:30.177Z,0.90
2023-04-16T06:05:56.906Z,0.90
2023-04-16T06:08:23.644Z,0.80
2023-04-16T06:10:50.313Z,0.82
2023-04-16T06:13:16.922Z,0.80
2023-04-16T06:15:43.686Z,0.80
2023-04-16T06:18:10.305Z,1.05
2023-04-16T06:20:36.887Z,0.80
2023-04-16T06:23:03.463Z,0.90
2023-04-16T06:25:30.017Z,0.68
2023-04-16T06:27:56.535Z,0.80
2023-04-16T06:30:23.992Z,0.95
2023-04-16T06:32:50.640Z,0.80
2023-04-16T06:35:20.004Z,0.73
2023-04-16T06:37:46.955Z,1.10
2023-04-16T06:40:13.517Z,0.93
2023-04-16T06:42:39.995Z,0.90
2023-04-16T06:45:07.336Z,0.82
2023-04-16T06:47:33.891Z,0.80
2023-04-16T06:50:00.414Z,0.77
2023-04-16T06:52:27.055Z,0.80
2023-04-16T06:54:53.586Z,0.90
2023-04-16T06:57:20.087Z,0.80
2023-04-16T06:59:46.667Z,0.82
2023-04-16T07:02:13.418Z,1.20
2023-04-16T07:04:40.220Z,0.90
2023-04-16T07:07:06.700Z,1.13
2023-04-16T07:09:33.314Z,0.90
2023-04-16T07:11:59.896Z,0.63
2023-04-16T07:14:26.440Z,0.90
2023-04-16T07:16:52.984Z,0.77
2023-04-16T07:19:19.576Z,1.08
2023-04-16T07:21:46.381Z,0.80
2023-04-16T07:24:13.156Z,0.98
2023-04-16T07:26:39.960Z,0.70
2023-04-16T07:29:06.546Z,0.93
2023-04-16T07:31:33.245Z,0.80
2023-04-16T07:33:59.861Z,0.70
2023-04-16T07:36:28.344Z,0.88
2023-04-16T07:38:54.896Z,0.95
2023-04-16T07:41:21.690Z,1.00
2023-04-16T07:43:48.266Z,0.82
2023-04-16T07:46:14.888Z,0.75
2023-04-16T07:48:41.449Z,0.70
2023-04-16T07:51:08.194Z,0.80
2023-04-16T07:53:34.732Z,0.80
2023-04-16T07:56:01.354Z,0.93
2023-04-16T07:58:27.832Z,0.60
2023-04-16T08:00:54.503Z,0.70
2023-04-16T08:03:21.256Z,0.80
2023-04-16T08:05:47.880Z,0.90
2023-04-16T08:08:14.454Z,0.80
2023-04-16T08:10:41.119Z,0.63
2023-04-16T08:13:07.681Z,0.80
2023-04-16T08:15:34.181Z,0.90
2023-04-16T08:18:00.862Z,0.82
2023-04-16T08:20:27.643Z,0.80
2023-04-16T08:22:54.927Z,0.68
2023-04-16T08:25:23.666Z,0.65
2023-04-16T08:27:51.021Z,1.00
2023-04-16T08:30:17.580Z,0.80
2023-04-16T08:32:44.239Z,0.90
2023-04-16T08:35:10.871Z,0.90
2023-04-16T08:37:37.348Z,0.93
2023-04-16T08:40:04.061Z,0.80
2023-04-16T08:42:36.937Z,0.57
2023-04-16T08:45:25.867Z,0.80
2023-04-16T08:47:53.033Z,0.75
2023-04-16T08:50:24.268Z,0.93
2023-04-16T08:53:03.491Z,0.80
2023-04-16T08:55:51.838Z,0.90
2023-04-16T08:58:22.794Z,1.00
2023-04-16T09:00:50.500Z,1.00
2023-04-16T09:03:17.381Z,1.00
2023-04-16T09:05:44.051Z,1.00
2023-04-16T09:08:10.624Z,1.00
2023-04-16T09:10:37.171Z,1.08
2023-04-16T09:13:03.693Z,0.85
2023-04-16T09:15:30.676Z,0.93
2023-04-16T09:17:57.678Z,0.80
2023-04-16T09:20:24.681Z,0.90
2023-04-16T09:22:51.631Z,1.00
2023-04-16T09:25:21.020Z,1.00
2023-04-16T09:27:49.981Z,1.00
2023-04-16T09:30:21.891Z,0.73
2023-04-16T09:32:49.268Z,0.85
2023-04-16T09:35:18.597Z,0.85
2023-04-16T09:37:55.868Z,0.77
2023-04-16T09:40:30.524Z,0.77
2023-04-16T09:42:58.377Z,1.00
2023-04-16T09:45:25.199Z,0.90
2023-04-16T09:47:51.841Z,1.10
2023-04-16T09:50:20.335Z,1.70
2023-04-16T09:52:51.337Z,2.13
2023-04-16T09:55:23.825Z,2.55
2023-04-16T09:57:58.687Z,2.78
2023-04-16T10:00:25.542Z,1.90
2023-04-16T10:03:03.976Z,2.25
2023-04-16T10:05:30.751Z,2.05
2023-04-16T10:08:01.309Z,1.98
2023-04-16T10:12:55.728Z,1.80
2023-04-16T10:15:22.698Z,1.88
2023-04-16T10:17:50.192Z,1.70
2023-04-16T10:20:18.491Z,1.13
2023-04-16T10:22:45.242Z,1.67
2023-04-16T10:25:12.007Z,1.27
2023-04-16T10:27:39.327Z,1.73
2023-04-16T10:30:07.588Z,1.60
2023-04-16T10:32:35.879Z,1.52
2023-04-16T10:35:02.463Z,1.58
2023-04-16T10:37:32.743Z,1.58
2023-04-16T10:40:00.057Z,1.20
2023-04-16T10:42:27.490Z,1.42
2023-04-16T10:44:54.227Z,1.33
2023-04-16T10:47:24.748Z,1.20
2023-04-16T10:49:51.973Z,1.20
2023-04-16T10:52:18.559Z,1.17
2023-04-16T10:54:47.820Z,1.10
2023-04-16T10:57:19.768Z,1.10
2023-04-16T10:59:49.266Z,1.02
2023-04-16T11:02:19.204Z,1.23
2023-04-16T11:04:48.237Z,1.63
2023-04-16T11:07:16.969Z,1.08
2023-04-16T11:10:13.123Z,1.20
2023-04-16T11:12:46.831Z,1.02
2023-04-16T11:15:15.864Z,1.30
2023-04-16T11:17:48.123Z,1.23
2023-04-16T11:20:21.752Z,1.15
2023-04-16T11:22:58.337Z,1.30
2023-04-16T11:25:25.875Z,1.40
2023-04-16T11:27:52.991Z,1.30
2023-04-16T11:30:29.398Z,1.00
2023-04-16T11:32:56.162Z,1.23
2023-04-16T11:35:22.935Z,1.00
2023-04-16T11:37:49.536Z,1.10
2023-04-16T11:40:16.097Z,0.90
2023-04-16T11:42:43.320Z,1.20
2023-04-16T11:45:11.832Z,1.13
2023-04-16T11:47:55.436Z,1.10
2023-04-16T11:50:23.301Z,1.48
2023-04-16T11:52:51.483Z,0.77
2023-04-16T11:55:18.390Z,1.10
2023-04-16T11:57:45.967Z,1.10
2023-04-16T12:00:14.157Z,0.90
2023-04-16T12:02:51.754Z,1.00
2023-04-16T12:05:37.750Z,1.10
2023-04-16T12:08:07.223Z,1.00
2023-04-16T12:10:36.230Z,0.90
2023-04-16T12:13:16.896Z,1.00
2023-04-16T12:15:55.209Z,1.08
2023-04-16T12:18:24.538Z,0.88
2023-04-16T12:20:51.440Z,1.00
2023-04-16T12:23:32.857Z,1.00
2023-04-16T12:26:10.427Z,1.30
2023-04-16T12:28:41.717Z,0.82
2023-04-16T12:31:08.505Z,1.10
2023-04-16T12:33:35.129Z,1.08
2023-04-16T12:36:02.176Z,1.10
2023-04-16T12:38:29.438Z,0.93
2023-04-16T12:40:57.754Z,0.93
2023-04-16T12:43:25.158Z,1.23
2023-04-16T12:45:51.837Z,1.20
2023-04-16T12:48:18.425Z,1.40
2023-04-16T12:50:44.988Z,1.10
2023-04-16T12:53:11.879Z,1.00
2023-04-16T12:55:38.615Z,1.17
2023-04-16T12:58:05.144Z,1.33
2023-04-16T13:00:31.641Z,1.00
2023-04-16T13:02:58.252Z,0.98
2023-04-16T13:05:24.997Z,1.17
2023-04-16T13:07:51.520Z,1.00
2023-04-16T13:10:18.136Z,1.10
2023-04-16T13:12:46.506Z,1.00
2023-04-16T13:15:13.067Z,1.30
2023-04-16T13:17:39.633Z,1.15
2023-04-16T13:20:06.590Z,1.48
2023-04-16T13:22:33.611Z,1.00
2023-04-16T13:25:00.075Z,1.20
2023-04-16T13:27:26.731Z,1.30
2023-04-16T13:29:53.351Z,1.20
2023-04-16T13:32:19.947Z,1.15
2023-04-16T13:34:47.107Z,1.05
2023-04-16T13:37:13.975Z,1.10
2023-04-16T13:39:40.661Z,1.13
2023-04-16T13:42:07.185Z,1.40
2023-04-16T13:44:33.914Z,1.20
2023-04-16T13:47:00.691Z,1.23
2023-04-16T13:49:27.384Z,1.20
2023-04-16T13:51:54.004Z,1.45
2023-04-16T13:54:20.587Z,1.50
2023-04-16T13:56:47.173Z,1.30
2023-04-16T13:59:15.700Z,1.73
2023-04-16T14:01:42.492Z,1.58
2023-04-16T14:04:09.145Z,1.55
2023-04-16T14:06:35.923Z,1.23
2023-04-16T14:09:02.466Z,1.42
2023-04-16T14:11:29.067Z,1.40
2023-04-16T14:13:55.845Z,1.35
2023-04-16T14:16:22.500Z,1.30
2023-04-16T14:18:49.066Z,1.83
2023-04-16T14:21:15.667Z,1.65
2023-04-16T14:23:42.191Z,1.40
2023-04-16T14:26:08.852Z,1.52
2023-04-16T14:28:35.938Z,1.58
2023-04-16T14:31:02.545Z,1.70
2023-04-16T14:33:29.284Z,1.70
2023-04-16T14:35:56.074Z,1.92
2023-04-16T14:38:22.690Z,1.50
2023-04-16T14:40:49.347Z,1.45
2023-04-16T14:43:16.022Z,1.65
2023-04-16T14:45:42.593Z,1.77
2023-04-16T14:48:09.295Z,2.30
2023-04-16T14:50:38.097Z,2.05
2023-04-16T14:53:05.600Z,1.85
2023-04-16T14:55:32.646Z,1.60
2023-04-16T14:58:00.024Z,2.22
2023-04-16T15:00:27.505Z,2.05
2023-04-16T15:02:57.702Z,2.22
2023-04-16T15:05:24.549Z,2.55
2023-04-16T15:07:51.555Z,2.10
2023-04-16T15:10:18.245Z,1.80
2023-04-16T15:12:44.787Z,2.00
2023-04-16T15:15:11.429Z,2.30
2023-04-16T15:17:38.096Z,2.28
2023-04-16T15:20:08.231Z,2.15
2023-04-16T15:22:35.322Z,1.95
2023-04-16T15:25:02.151Z,2.30
2023-04-16T15:27:28.684Z,2.10
2023-04-16T15:29:55.450Z,2.10
2023-04-16T15:32:22.012Z,2.20
2023-04-16T15:34:48.589Z,2.00
2023-04-16T15:37:16.047Z,2.20
2023-04-16T15:39:42.754Z,2.30
2023-04-16T15:42:09.327Z,2.38
2023-04-16T15:44:36.298Z,2.50
2023-04-16T15:47:02.942Z,2.00
2023-04-16T15:49:29.606Z,2.85
2023-04-16T15:51:56.469Z,2.20
2023-04-16T15:54:23.494Z,1.80
2023-04-16T15:56:50.404Z,2.00
2023-04-16T15:59:16.972Z,2.03
2023-04-16T16:01:43.638Z,1.90
2023-04-16T16:04:10.394Z,2.28
2023-04-16T16:06:38.136Z,2.20
2023-04-16T16:09:05.033Z,2.10
2023-04-16T16:11:32.634Z,1.80
2023-04-16T16:14:01.546Z,2.13
2023-04-16T16:16:28.584Z,2.25
2023-04-16T16:18:55.727Z,2.40
2023-04-16T16:21:22.305Z,2.30
2023-04-16T16:23:48.866Z,2.17
2023-04-16T16:26:15.414Z,2.00
2023-04-16T16:28:43.918Z,2.10
2023-04-16T16:31:12.145Z,2.13
2023-04-16T16:33:40.268Z,2.20
2023-04-16T16:36:10.313Z,2.00
2023-04-16T16:38:37.087Z,2.10
2023-04-16T16:41:03.619Z,1.90
2023-04-16T16:43:30.189Z,2.15
2023-04-16T16:45:56.894Z,2.15
2023-04-16T16:48:23.444Z,2.15
2023-04-16T16:50:50.143Z,2.10
2023-04-16T16:53:16.744Z,2.08
2023-04-16T16:55:43.393Z,2.00
2023-04-16T16:58:09.925Z,2.40
2023-04-16T17:00:37.145Z,2.00
2023-04-16T17:03:03.898Z,2.00
2023-04-16T17:05:30.650Z,1.85
2023-04-16T17:07:57.334Z,2.20
2023-04-16T17:10:23.892Z,1.95
2023-04-16T17:12:51.096Z,1.88
2023-04-16T17:15:20.559Z,2.10
2023-04-16T17:20:14.930Z,2.35
2023-04-16T17:22:41.985Z,2.08
2023-04-16T17:25:09.179Z,2.30
2023-04-16T17:27:35.900Z,2.22
2023-04-16T17:30:05.338Z,2.13
2023-04-16T17:32:32.671Z,2.30
2023-04-16T17:35:00.770Z,2.10
2023-04-16T17:37:27.819Z,2.10
2023-04-16T17:39:54.378Z,2.35
2023-04-16T17:42:21.119Z,2.30
2023-04-16T17:44:47.645Z,2.30
2023-04-16T17:47:14.317Z,2.00
2023-04-16T17:49:40.988Z,2.60
2023-04-16T17:52:07.530Z,2.30
2023-04-16T17:54:34.039Z,2.03
2023-04-16T17:57:00.634Z,1.98
2023-04-16T17:59:27.477Z,2.20
2023-04-16T18:01:54.994Z,2.40
2023-04-16T18:04:21.761Z,2.20
2023-04-16T18:06:48.466Z,2.42
2023-04-16T18:09:15.698Z,2.10
2023-04-16T18:11:42.282Z,2.30
2023-04-16T18:14:10.211Z,2.25
2023-04-16T18:16:36.865Z,2.15
2023-04-16T18:19:03.422Z,2.60
2023-04-16T18:21:30.430Z,2.17
2023-04-16T18:23:57.469Z,2.03
2023-04-16T18:26:25.244Z,2.22
2023-04-16T18:28:52.650Z,1.90
2023-04-16T18:31:21.315Z,2.17
2023-04-16T18:33:56.754Z,2.38
2023-04-16T18:36:26.093Z,2.63
2023-04-16T18:39:01.578Z,2.28
2023-04-16T18:41:29.274Z,2.22
2023-04-16T18:43:56.060Z,2.50
2023-04-16T18:46:22.654Z,2.42
2023-04-16T18:48:49.213Z,2.45
2023-04-16T18:51:16.693Z,2.20
2023-04-16T18:53:45.480Z,2.47
2023-04-16T18:56:12.533Z,2.47
2023-04-16T18:58:39.085Z,2.40
2023-04-16T19:01:11.012Z,2.28
2023-04-16T19:03:38.207Z,2.35
2023-04-16T19:06:05.915Z,3.08
2023-04-16T19:08:32.731Z,2.58
2023-04-16T19:10:59.319Z,2.70
2023-04-16T19:13:25.948Z,2.67
2023-04-16T19:15:58.171Z,2.45
2023-04-16T19:18:24.914Z,2.72
2023-04-16T19:20:51.442Z,3.05
2023-04-16T19:23:17.996Z,2.63
2023-04-16T19:25:44.498Z,3.10
2023-04-16T19:28:11.049Z,2.55
2023-04-16T19:30:37.526Z,2.72
2023-04-16T19:33:04.151Z,2.70
2023-04-16T19:35:30.725Z,2.90
2023-04-16T19:37:58.082Z,2.50
2023-04-16T19:40:24.589Z,2.88
2023-04-16T19:42:51.222Z,2.50
2023-04-16T19:45:18.383Z,2.67
2023-04-16T19:47:45.077Z,3.10
2023-04-16T19:50:11.764Z,2.60
2023-04-16T19:52:39.122Z,2.50
2023-04-16T19:55:07.114Z,2.92
2023-04-16T19:57:33.779Z,2.78
2023-04-16T20:00:00.413Z,3.05
2023-04-16T20:02:27.106Z,2.90
2023-04-16T20:04:53.961Z,2.80
2023-04-16T20:07:20.606Z,3.05
2023-04-16T20:09:47.348Z,2.72
2023-04-16T20:12:14.422Z,3.15
2023-04-16T20:14:41.881Z,2.92
2023-04-16T20:17:10.383Z,3.30
2023-04-16T20:19:40.851Z,2.70
2023-04-16T20:22:07.366Z,2.88
2023-04-16T20:24:34.317Z,2.90
2023-04-16T20:27:01.675Z,2.88
2023-04-16T20:29:28.317Z,3.05
2023-04-16T20:31:54.947Z,3.10
2023-04-16T20:34:21.412Z,2.70
2023-04-16T20:36:48.118Z,3.45
2023-04-16T20:39:14.808Z,3.05
2023-04-16T20:41:44.204Z,3.00
2023-04-16T20:44:18.335Z,3.33
2023-04-16T20:46:49.411Z,3.20
2023-04-16T20:49:17.658Z,2.60
2023-04-16T20:51:44.414Z,3.28
2023-04-16T20:54:11.060Z,2.92
2023-04-16T20:56:37.777Z,3.25
2023-04-16T20:59:04.434Z,2.97
2023-04-16T21:01:30.986Z,3.20
2023-04-16T21:03:57.629Z,2.97
2023-04-16T21:06:24.342Z,3.10
2023-04-16T21:08:51.214Z,3.38
2023-04-16T21:11:17.726Z,3.28
2023-04-16T21:13:44.264Z,3.25
2023-04-16T21:16:12.424Z,2.97
2023-04-16T21:18:39.184Z,3.40
2023-04-16T21:21:06.004Z,3.45
2023-04-16T21:23:32.603Z,3.00
2023-04-16T21:25:59.140Z,3.40
2023-04-16T21:28:25.765Z,3.15
2023-04-16T21:30:52.964Z,2.95
2023-04-16T21:33:19.542Z,3.45
2023-04-16T21:35:51.655Z,3.28
2023-04-16T21:38:18.662Z,3.47
2023-04-16T21:40:50.875Z,3.08
2023-04-16T21:43:17.853Z,3.20
2023-04-16T21:45:44.438Z,3.10
2023-04-16T21:48:11.006Z,3.72
2023-04-16T21:50:37.972Z,3.30
2023-04-16T21:53:06.357Z,3.13
2023-04-16T21:55:34.671Z,3.40
2023-04-16T21:58:01.974Z,3.20
2023-04-16T22:00:28.754Z,3.55
2023-04-16T22:03:00.147Z,2.97
2023-04-16T22:05:26.785Z,3.50
2023-04-16T22:07:53.246Z,3.30
2023-04-16T22:10:19.708Z,3.53
2023-04-16T22:12:46.577Z,3.63
2023-04-16T22:15:13.933Z,3.50
2023-04-16T22:17:40.713Z,3.35
2023-04-16T22:20:14.545Z,3.40
2023-04-16T22:22:42.215Z,3.67
2023-04-16T22:25:09.805Z,2.92
2023-04-16T22:27:36.682Z,3.33
2023-04-16T22:30:04.075Z,3.50
2023-04-16T22:32:31.028Z,3.80
2023-04-16T22:34:57.743Z,3.70
2023-04-16T22:37:24.412Z,3.28
2023-04-16T22:39:50.891Z,3.45
2023-04-16T22:42:17.425Z,3.22
2023-04-16T22:44:43.951Z,3.83
2023-04-16T22:47:10.319Z,3.63
2023-04-16T22:49:36.956Z,3.67
2023-04-16T22:52:03.671Z,3.50
2023-04-16T22:54:33.084Z,3.58
2023-04-16T22:56:59.618Z,3.70
2023-04-16T22:59:26.337Z,3.50
2023-04-16T23:01:53.078Z,3.25
2023-04-16T23:04:19.815Z,3.47
2023-04-16T23:06:46.437Z,3.58
2023-04-16T23:09:13.220Z,3.45
2023-04-16T23:11:40.024Z,3.88
2023-04-16T23:14:07.599Z,3.40
2023-04-16T23:16:34.104Z,3.80
2023-04-16T23:19:00.956Z,3.75
2023-04-16T23:21:27.506Z,4.03
2023-04-16T23:23:54.371Z,3.80
2023-04-16T23:26:20.848Z,3.85
2023-04-16T23:28:47.331Z,4.00
2023-04-16T23:31:13.876Z,3.60
2023-04-16T23:33:40.422Z,4.07
2023-04-16T23:36:07.417Z,3.97
2023-04-16T23:38:33.909Z,4.53
2023-04-16T23:41:00.436Z,4.00
2023-04-16T23:43:26.982Z,4.63
2023-04-16T23:45:53.507Z,4.15
2023-04-16T23:48:20.005Z,4.75
2023-04-16T23:50:46.566Z,4.72
2023-04-16T23:53:13.164Z,4.82
2023-04-16T23:55:39.818Z,4.93
2023-04-16T23:58:06.347Z,5.10
